Amherst Junction, Wisconsin
Current Conditions -  °F | °C
As of 12:35 AM on Saturday 20 Dec 2014 (Local Time) from KSTE Reporting Station
Overcast Overcast  
Wind Chill: 13°   Ceiling: 1000
Heat Index: 22°   Visibility: 10mi
Dew Point: 19°   Wind: 7mph
Humidity: 89%   Direction: 200°SSW
Pressure: 30.24"   Gusts: NA
Location:  44.47°N, 89.31°W
Report Text: KSTE 200635Z AUTO 20006KT 10SM BKN010 OVC017 M06/M07 A3024 RMK AO2 T10561071
Loading
Personal Weather Stations






























Interactive Weather Map New forecast layout! Learn more

10-Day Weather Forecast

Advertisements
Track Severe Weather on mobile